Time;durP1;ratioP1;P1;durP2;ratioP2;P2;SDS_P1;SDS_P2;PMS_P1;PMS_P2;Temp;Humidity;BMP_temperature;BMP_pressure;BME280_temperature;BME280_humidity;BME280_pressure;Samples;Min_cycle;Max_cycle;Signal;HPM_P1;HPM_P2
2023/01/09 00:02:07;;;;;;;3.40;1.60;;;9.50;99.90;;;;;;5028754;28;20210;-78
2023/01/09 00:04:34;;;;;;;2.23;1.50;;;9.30;99.90;;;;;;5011934;28;20572;-79
2023/01/09 00:06:59;;;;;;;1.67;1.57;;;9.50;99.90;;;;;;5016893;28;20440;-77
2023/01/09 00:09:25;;;;;;;3.73;1.50;;;9.30;99.90;;;;;;5020060;28;20555;-79
2023/01/09 00:11:51;;;;;;;1.73;1.60;;;9.40;99.90;;;;;;4999893;28;20204;-79
2023/01/09 00:14:17;;;;;;;2.23;1.00;;;9.20;99.90;;;;;;5035404;28;20182;-79
2023/01/09 00:16:43;;;;;;;1.30;1.10;;;9.30;99.90;;;;;;5005920;28;20894;-79
2023/01/09 00:19:10;;;;;;;1.50;1.00;;;9.30;99.90;;;;;;5028991;28;20506;-79
2023/01/09 00:21:35;;;;;;;1.00;0.90;;;9.40;99.90;;;;;;5023519;28;20445;-79
2023/01/09 00:24:01;;;;;;;1.10;1.00;;;9.30;99.90;;;;;;5024860;28;20416;-79
2023/01/09 00:26:27;;;;;;;0.93;0.83;;;9.30;99.90;;;;;;5033422;28;20413;-78
2023/01/09 00:28:53;;;;;;;1.53;1.00;;;9.50;99.90;;;;;;4997710;28;20211;-79
2023/01/09 00:31:20;;;;;;;2.07;1.00;;;9.20;99.90;;;;;;4989724;28;20249;-80
2023/01/09 00:34:06;;;;;;;0.90;0.80;;;9.30;99.90;;;;;;5003121;28;20426;-77
2023/01/09 00:36:32;;;;;;;0.80;0.60;;;9.30;99.90;;;;;;5011062;28;20960;-78
2023/01/09 00:38:58;;;;;;;1.17;0.73;;;9.20;99.90;;;;;;4980748;28;20414;-79
2023/01/09 00:41:46;;;;;;;1.30;0.80;;;9.20;99.90;;;;;;5013746;28;20781;-77
2023/01/09 00:44:38;;;;;;;2.10;0.90;;;9.20;99.90;;;;;;4990246;28;20560;-77
2023/01/09 00:47:29;;;;;;;0.80;0.80;;;9.30;99.90;;;;;;4998978;28;20474;-78
2023/01/09 00:49:59;;;;;;;1.20;0.87;;;9.20;99.90;;;;;;5000192;28;20565;-80
2023/01/09 00:52:25;;;;;;;1.77;0.80;;;9.30;99.90;;;;;;4997068;28;20440;-78
2023/01/09 00:54:50;;;;;;;1.00;0.80;;;9.20;99.90;;;;;;5013839;28;20505;-79
2023/01/09 00:57:16;;;;;;;0.63;0.50;;;9.20;99.90;;;;;;5014417;28;20194;-78
2023/01/09 00:59:42;;;;;;;1.07;0.77;;;9.10;99.90;;;;;;4994915;28;20237;-80
2023/01/09 01:02:08;;;;;;;1.03;0.60;;;9.10;99.90;;;;;;4996279;28;20234;-77
2023/01/09 01:10:09;;;;;;;1.87;0.67;;;9.00;99.90;;;;;;5013889;28;20426;-79
2023/01/09 01:12:35;;;;;;;0.60;0.60;;;9.00;99.90;;;;;;4997177;28;20630;-78
2023/01/09 01:15:02;;;;;;;0.80;0.60;;;9.00;99.90;;;;;;5013693;28;20480;-78
2023/01/09 01:17:28;;;;;;;1.10;0.80;;;9.20;99.90;;;;;;4997163;28;20505;-80
2023/01/09 01:19:54;;;;;;;0.80;0.70;;;9.10;99.90;;;;;;5014697;28;20525;-79
2023/01/09 01:22:19;;;;;;;1.13;0.50;;;9.10;99.90;;;;;;4997471;28;20203;-80
2023/01/09 01:24:45;;;;;;;1.03;0.60;;;9.10;99.90;;;;;;5013911;28;20493;-80
2023/01/09 01:27:11;;;;;;;0.90;0.50;;;9.10;99.90;;;;;;4996899;28;20533;-77
2023/01/09 01:29:36;;;;;;;1.17;0.80;;;9.00;99.90;;;;;;5013519;28;20260;-80
2023/01/09 01:32:02;;;;;;;1.73;0.70;;;9.00;99.90;;;;;;4996532;28;20699;-79
2023/01/09 01:34:28;;;;;;;0.60;0.57;;;9.00;99.90;;;;;;5014293;28;20551;-79
2023/01/09 01:36:54;;;;;;;1.30;0.70;;;9.00;99.90;;;;;;4996368;28;20183;-79
2023/01/09 01:39:20;;;;;;;0.80;0.60;;;8.90;99.90;;;;;;4996568;28;20433;-79
2023/01/09 01:41:45;;;;;;;0.73;0.70;;;9.00;99.90;;;;;;4986686;28;20211;-78
2023/01/09 01:44:49;;;;;;;1.60;0.60;;;8.90;99.90;;;;;;4994770;28;20207;-80
2023/01/09 01:47:17;;;;;;;0.70;0.60;;;8.80;99.90;;;;;;4994130;28;20659;-79
2023/01/09 01:49:42;;;;;;;1.53;0.70;;;8.90;99.90;;;;;;4959976;28;20475;-79
2023/01/09 01:52:08;;;;;;;0.70;0.70;;;8.80;99.90;;;;;;4994782;28;20811;-78
2023/01/09 01:54:34;;;;;;;0.80;0.50;;;8.80;99.90;;;;;;4960791;28;20431;-80
2023/01/09 01:57:02;;;;;;;0.70;0.70;;;8.80;99.90;;;;;;4993840;28;20295;-80
2023/01/09 01:59:32;;;;;;;0.70;0.60;;;8.70;99.90;;;;;;4993843;28;20515;-80
2023/01/09 02:02:00;;;;;;;0.77;0.77;;;8.70;99.90;;;;;;4994456;28;20442;-77
2023/01/09 02:04:27;;;;;;;1.20;0.87;;;8.80;99.90;;;;;;4976591;28;20423;-79
2023/01/09 02:06:55;;;;;;;0.70;0.60;;;9.00;99.90;;;;;;4994164;28;20452;-78
2023/01/09 02:09:22;;;;;;;1.17;0.50;;;8.80;99.90;;;;;;4976599;28;20466;-80
2023/01/09 02:11:53;;;;;;;0.60;0.60;;;8.90;99.90;;;;;;4993729;28;20449;-79
2023/01/09 02:14:21;;;;;;;0.63;0.50;;;8.80;99.90;;;;;;4976271;28;20446;-79
2023/01/09 02:17:08;;;;;;;0.80;0.67;;;9.00;99.90;;;;;;4976093;28;20414;-79
2023/01/09 02:20:07;;;;;;;1.43;0.70;;;8.90;99.90;;;;;;4975826;28;21001;-79
2023/01/09 02:22:56;;;;;;;0.73;0.40;;;8.90;99.90;;;;;;4976268;28;20445;-80
2023/01/09 02:25:42;;;;;;;0.67;0.50;;;8.80;99.90;;;;;;4976445;28;20419;-79
2023/01/09 02:28:39;;;;;;;0.80;0.60;;;8.80;99.90;;;;;;4976628;28;20982;-80
2023/01/09 02:31:42;;;;;;;0.60;0.50;;;8.90;99.90;;;;;;4975808;28;20430;-78
2023/01/09 02:34:08;;;;;;;0.73;0.50;;;8.80;99.90;;;;;;4994204;28;20433;-77
2023/01/09 02:36:53;;;;;;;0.93;0.53;;;8.80;99.90;;;;;;4991493;28;20422;-80
2023/01/09 02:39:58;;;;;;;3.83;0.40;;;8.70;99.90;;;;;;4996075;28;20237;-77
2023/01/09 02:42:25;;;;;;;1.00;0.50;;;8.70;99.90;;;;;;4997925;28;20438;-78
2023/01/09 02:44:51;;;;;;;2.73;0.70;;;8.70;99.90;;;;;;4976604;28;20462;-77
2023/01/09 02:47:17;;;;;;;1.10;0.60;;;8.70;99.90;;;;;;4975491;28;20529;-78
2023/01/09 02:49:52;;;;;;;0.70;0.50;;;8.80;99.90;;;;;;4975277;28;20467;-78
2023/01/09 02:52:55;;;;;;;0.97;0.60;;;8.70;99.90;;;;;;4993337;28;20599;-78
2023/01/09 02:55:39;;;;;;;0.77;0.60;;;8.70;99.90;;;;;;4979501;28;20962;-79
2023/01/09 02:58:33;;;;;;;1.73;0.60;;;8.70;99.90;;;;;;4979182;28;20426;-78
2023/01/09 03:01:01;;;;;;;2.00;0.77;;;8.80;99.90;;;;;;4992374;28;20419;-79
2023/01/09 03:03:39;;;;;;;0.70;0.60;;;8.70;99.90;;;;;;4957832;28;20946;-79
2023/01/09 03:06:14;;;;;;;1.50;0.70;;;8.80;99.90;;;;;;4974010;28;20465;-79
2023/01/09 03:08:50;;;;;;;1.10;0.90;;;8.50;99.90;;;;;;4991831;28;21040;-79
2023/01/09 03:11:16;;;;;;;1.07;0.80;;;8.60;99.90;;;;;;4991428;28;20450;-79
2023/01/09 03:13:52;;;;;;;2.43;0.90;;;8.60;99.90;;;;;;4991607;28;20830;-79
2023/01/09 03:16:23;;;;;;;1.53;0.97;;;8.70;99.90;;;;;;4974142;28;20274;-78
2023/01/09 03:18:50;;;;;;;1.00;0.73;;;8.60;99.90;;;;;;4992044;28;20647;-79
2023/01/09 03:21:17;;;;;;;0.97;0.70;;;8.50;99.90;;;;;;4991232;28;20447;-79
2023/01/09 03:23:50;;;;;;;1.40;0.83;;;8.70;99.90;;;;;;4991873;28;20442;-79
2023/01/09 03:26:16;;;;;;;2.00;1.27;;;8.90;99.90;;;;;;4991452;28;21012;-79
2023/01/09 03:28:42;;;;;;;1.27;1.07;;;8.60;99.90;;;;;;4974656;28;20859;-78
2023/01/09 03:31:08;;;;;;;1.97;1.10;;;8.70;99.90;;;;;;4974122;28;20418;-79
2023/01/09 03:33:34;;;;;;;1.27;1.17;;;8.70;99.90;;;;;;4974797;28;20418;-79
2023/01/09 03:36:00;;;;;;;1.70;1.40;;;8.70;99.90;;;;;;5002055;28;20941;-78
2023/01/09 03:38:25;;;;;;;1.60;1.50;;;8.80;99.90;;;;;;5011594;28;20447;-80
2023/01/09 03:40:51;;;;;;;2.30;1.80;;;8.80;99.90;;;;;;4991292;28;20183;-79
2023/01/09 03:43:17;;;;;;;2.30;1.70;;;8.70;99.90;;;;;;4992070;28;20204;-79
2023/01/09 03:45:43;;;;;;;2.53;1.97;;;8.60;99.90;;;;;;4974303;28;20560;-79
2023/01/09 03:48:08;;;;;;;3.40;2.00;;;8.80;99.90;;;;;;4993605;28;20572;-78
2023/01/09 03:50:34;;;;;;;1.90;1.70;;;8.60;99.90;;;;;;4995696;28;20184;-80
2023/01/09 03:52:59;;;;;;;2.03;1.83;;;8.80;99.90;;;;;;4995678;28;20611;-78
2023/01/09 03:55:25;;;;;;;3.20;1.73;;;8.80;99.90;;;;;;4978202;28;20176;-80
2023/01/09 03:57:51;;;;;;;2.53;1.80;;;8.50;99.90;;;;;;4977958;28;20219;-79
2023/01/09 04:00:19;;;;;;;2.33;1.60;;;8.40;99.90;;;;;;4995397;28;20183;-77
2023/01/09 04:02:44;;;;;;;2.03;1.70;;;8.70;99.90;;;;;;4978054;28;20443;-79
2023/01/09 04:05:10;;;;;;;2.37;1.60;;;8.80;99.90;;;;;;4994916;28;20418;-78
2023/01/09 04:07:36;;;;;;;1.80;1.70;;;8.50;99.90;;;;;;4961608;28;20661;-78
2023/01/09 04:10:02;;;;;;;2.80;2.30;;;8.60;99.90;;;;;;4995057;28;20242;-80
2023/01/09 04:12:28;;;;;;;4.67;1.80;;;8.50;99.90;;;;;;4995382;28;20533;-80
2023/01/09 04:14:53;;;;;;;3.93;1.57;;;8.80;99.90;;;;;;4977980;28;20710;-80
2023/01/09 04:17:19;;;;;;;1.93;1.63;;;8.60;99.90;;;;;;5000458;28;20615;-80
2023/01/09 04:19:45;;;;;;;2.13;1.83;;;8.40;99.90;;;;;;4965934;28;20666;-80
2023/01/09 04:22:10;;;;;;;5.47;1.93;;;8.60;99.90;;;;;;4999926;28;20212;-80
2023/01/09 04:24:36;;;;;;;2.20;1.50;;;8.50;99.90;;;;;;4982545;28;20184;-80
2023/01/09 04:27:01;;;;;;;2.40;1.70;;;8.50;99.90;;;;;;4998855;28;20191;-79
2023/01/09 04:29:27;;;;;;;3.57;1.73;;;8.50;99.90;;;;;;4982086;28;20212;-80
2023/01/09 04:31:53;;;;;;;3.87;2.00;;;8.50;99.90;;;;;;4982451;28;20218;-80
2023/01/09 04:34:24;;;;;;;2.17;1.57;;;8.40;99.90;;;;;;4981797;28;20188;-80
2023/01/09 04:36:50;;;;;;;5.37;1.80;;;8.40;99.90;;;;;;5016410;28;20297;-80
2023/01/09 04:39:16;;;;;;;5.43;2.30;;;8.60;99.90;;;;;;5001756;28;20865;-80
2023/01/09 04:41:47;;;;;;;3.53;1.43;;;8.50;99.90;;;;;;4976287;28;20527;-80
2023/01/09 04:44:18;;;;;;;3.53;1.97;;;8.40;99.90;;;;;;4982298;28;20658;-80
2023/01/09 04:46:44;;;;;;;4.00;1.40;;;8.60;99.90;;;;;;4999334;28;20430;-79
2023/01/09 04:49:09;;;;;;;2.60;1.40;;;8.50;99.90;;;;;;5016676;28;20527;-80
2023/01/09 04:51:35;;;;;;;1.97;1.43;;;8.20;99.90;;;;;;5001401;28;20453;-80
2023/01/09 04:54:01;;;;;;;3.30;1.60;;;8.40;99.90;;;;;;5001521;28;20176;-80
2023/01/09 04:56:26;;;;;;;2.90;1.50;;;8.30;99.90;;;;;;5019302;28;20178;-79
2023/01/09 04:58:52;;;;;;;7.97;2.73;;;8.30;99.90;;;;;;5001525;28;20202;-80
2023/01/09 05:01:17;;;;;;;3.80;1.50;;;8.20;99.90;;;;;;5018338;28;20221;-80
2023/01/09 05:03:43;;;;;;;2.70;1.63;;;8.10;99.90;;;;;;5017634;28;20172;-80
2023/01/09 05:06:08;;;;;;;2.00;1.60;;;8.20;99.90;;;;;;5017172;28;20183;-79
2023/01/09 05:08:34;;;;;;;2.50;1.30;;;8.30;99.90;;;;;;4991721;28;20212;-79
2023/01/09 05:11:00;;;;;;;4.93;1.60;;;8.30;99.90;;;;;;4975734;28;20187;-80
2023/01/09 05:13:26;;;;;;;4.30;2.30;;;8.30;99.90;;;;;;4999848;28;20176;-80
2023/01/09 05:15:51;;;;;;;2.87;1.30;;;8.30;99.90;;;;;;4995248;28;20180;-80
2023/01/09 05:18:17;;;;;;;2.87;1.67;;;8.10;99.90;;;;;;5013553;28;20410;-80
2023/01/09 05:20:43;;;;;;;3.70;1.10;;;8.30;99.90;;;;;;4990412;28;20528;-80
2023/01/09 05:23:08;;;;;;;4.73;1.03;;;8.00;99.90;;;;;;5003532;28;20254;-80
2023/01/09 05:25:34;;;;;;;4.70;1.33;;;8.10;99.90;;;;;;4998276;28;20279;-80
2023/01/09 05:28:00;;;;;;;3.30;1.00;;;7.90;99.90;;;;;;4998847;28;20315;-80
2023/01/09 05:30:26;;;;;;;2.47;1.27;;;8.00;99.90;;;;;;4998063;28;20589;-80
2023/01/09 05:32:52;;;;;;;5.10;1.67;;;8.10;99.90;;;;;;4998060;28;20470;-80
2023/01/09 05:35:17;;;;;;;1.80;1.10;;;8.00;99.90;;;;;;4965232;28;20438;-80
2023/01/09 05:37:43;;;;;;;2.27;2.07;;;7.90;99.90;;;;;;4980570;28;20719;-80
2023/01/09 05:40:09;;;;;;;1.90;1.00;;;8.00;99.90;;;;;;4980717;28;20597;-80
2023/01/09 05:42:35;;;;;;;2.00;1.17;;;8.00;99.90;;;;;;5011996;28;20269;-79
2023/01/09 05:45:00;;;;;;;4.33;1.93;;;8.00;99.90;;;;;;5010477;28;20926;-80
2023/01/09 05:47:26;;;;;;;2.50;0.90;;;8.20;99.90;;;;;;4989092;28;20203;-80
2023/01/09 05:49:55;;;;;;;1.50;1.00;;;8.20;99.90;;;;;;5016625;28;20245;-80
2023/01/09 05:52:21;;;;;;;4.37;1.33;;;8.20;99.90;;;;;;5017104;28;20875;-80
2023/01/09 05:54:46;;;;;;;1.93;1.13;;;8.10;99.90;;;;;;4999782;28;20961;-80
2023/01/09 05:57:12;;;;;;;5.50;1.00;;;8.20;99.90;;;;;;4991300;28;20453;-80
2023/01/09 05:59:38;;;;;;;3.00;1.07;;;8.20;99.90;;;;;;5009546;28;20187;-79
2023/01/09 06:02:03;;;;;;;2.10;0.80;;;8.40;99.90;;;;;;5013028;28;20733;-80
2023/01/09 06:04:29;;;;;;;2.50;0.90;;;8.20;99.90;;;;;;5012879;28;20680;-80
2023/01/09 06:06:55;;;;;;;3.80;1.30;;;8.20;99.90;;;;;;4997559;28;20189;-79
2023/01/09 06:09:21;;;;;;;3.70;1.13;;;8.10;99.90;;;;;;5014669;28;20203;-80
2023/01/09 06:11:47;;;;;;;2.50;0.90;;;8.10;99.90;;;;;;4998467;28;20441;-80
2023/01/09 06:14:12;;;;;;;6.50;1.20;;;8.20;99.90;;;;;;4999700;28;20423;-79
2023/01/09 06:16:38;;;;;;;2.53;1.00;;;8.30;99.90;;;;;;4999889;28;20239;-79
2023/01/09 06:19:07;;;;;;;3.07;1.13;;;8.00;99.90;;;;;;5016538;28;20475;-80
2023/01/09 06:21:33;;;;;;;2.80;1.00;;;8.10;99.90;;;;;;4998155;28;20568;-79
2023/01/09 06:23:59;;;;;;;2.90;0.90;;;8.20;99.90;;;;;;4998115;28;20423;-79
2023/01/09 06:26:25;;;;;;;5.63;1.13;;;7.90;99.90;;;;;;4981223;28;20187;-79
2023/01/09 06:28:51;;;;;;;3.07;0.87;;;8.20;99.90;;;;;;4996700;28;20211;-79
2023/01/09 06:31:17;;;;;;;3.40;0.90;;;8.20;99.90;;;;;;4997092;28;20609;-79
2023/01/09 06:33:42;;;;;;;3.10;0.87;;;8.10;99.90;;;;;;4980640;28;20419;-79
2023/01/09 06:36:08;;;;;;;1.90;1.37;;;8.20;99.90;;;;;;5006051;28;20190;-79
2023/01/09 06:38:34;;;;;;;2.87;1.40;;;8.10;99.90;;;;;;5017568;28;20213;-80
2023/01/09 06:40:59;;;;;;;4.00;0.90;;;8.10;99.90;;;;;;4995619;28;20415;-80
2023/01/09 06:43:25;;;;;;;2.40;0.80;;;8.10;99.90;;;;;;4997246;28;20211;-79
2023/01/09 06:45:51;;;;;;;2.13;1.00;;;8.10;99.90;;;;;;4980911;28;20293;-79
2023/01/09 06:48:16;;;;;;;4.57;1.10;;;8.10;99.90;;;;;;4980073;28;20227;-79
2023/01/09 06:50:42;;;;;;;1.80;1.00;;;8.20;99.90;;;;;;4980247;28;20207;-79
2023/01/09 06:53:09;;;;;;;3.00;1.33;;;8.30;99.90;;;;;;4997610;28;20206;-79
2023/01/09 06:55:35;;;;;;;5.63;1.70;;;8.10;99.90;;;;;;5005363;28;20648;-79
2023/01/09 06:58:01;;;;;;;3.77;1.30;;;8.00;99.90;;;;;;5011450;28;20433;-79
2023/01/09 07:00:26;;;;;;;2.93;1.07;;;8.00;99.90;;;;;;5010429;28;20876;-79
2023/01/09 07:02:52;;;;;;;1.53;0.97;;;8.10;99.90;;;;;;5005002;28;20203;-79
2023/01/09 07:05:17;;;;;;;2.83;1.40;;;8.10;99.90;;;;;;5016495;28;20214;-79
2023/01/09 07:07:43;;;;;;;2.27;0.80;;;8.20;99.90;;;;;;4999369;28;20229;-79
2023/01/09 07:10:10;;;;;;;4.57;1.37;;;8.10;99.90;;;;;;4999299;28;20186;-79
2023/01/09 07:12:35;;;;;;;4.73;1.30;;;8.20;99.90;;;;;;4990621;28;20204;-79
2023/01/09 07:15:01;;;;;;;4.47;1.53;;;8.20;99.90;;;;;;5004308;28;20423;-79
2023/01/09 07:17:27;;;;;;;2.27;1.13;;;8.10;99.90;;;;;;5010238;28;20187;-79
2023/01/09 07:19:52;;;;;;;6.57;2.00;;;8.10;99.90;;;;;;5003870;28;20200;-80
2023/01/09 07:22:18;;;;;;;2.93;1.30;;;8.10;99.90;;;;;;5006025;28;20199;-80
2023/01/09 07:24:44;;;;;;;4.50;1.30;;;8.20;99.90;;;;;;5000373;28;20529;-79
2023/01/09 07:27:10;;;;;;;4.37;1.37;;;8.10;99.90;;;;;;4970838;28;20175;-80
2023/01/09 07:29:36;;;;;;;4.33;1.13;;;8.10;99.90;;;;;;4982048;28;20204;-80
2023/01/09 07:32:02;;;;;;;5.93;1.80;;;8.30;99.90;;;;;;5000325;28;20508;-80
2023/01/09 07:34:27;;;;;;;3.57;1.30;;;8.10;99.90;;;;;;5000780;28;20179;-80
2023/01/09 07:36:53;;;;;;;3.53;1.40;;;8.20;99.90;;;;;;4994567;28;20414;-79
2023/01/09 07:39:19;;;;;;;3.23;1.40;;;8.30;99.90;;;;;;5015657;28;20190;-79
2023/01/09 07:41:45;;;;;;;3.20;1.50;;;8.20;99.90;;;;;;4983500;28;20203;-79
2023/01/09 07:44:10;;;;;;;1.80;0.97;;;8.20;99.90;;;;;;5011971;28;20176;-80
2023/01/09 07:46:36;;;;;;;2.70;1.30;;;8.20;99.90;;;;;;5013888;28;20424;-80
2023/01/09 07:49:02;;;;;;;3.30;1.30;;;8.10;99.90;;;;;;4988031;28;20195;-79
2023/01/09 07:51:27;;;;;;;1.47;0.90;;;8.20;99.90;;;;;;4987566;28;20277;-79
2023/01/09 07:53:53;;;;;;;3.43;1.20;;;8.30;99.90;;;;;;5001572;28;20186;-80
2023/01/09 07:56:19;;;;;;;3.60;1.30;;;8.30;99.90;;;;;;4998338;28;20175;-79
2023/01/09 07:58:45;;;;;;;5.03;1.30;;;8.30;99.90;;;;;;5015692;28;20183;-80
2023/01/09 08:01:10;;;;;;;3.90;1.00;;;8.20;99.90;;;;;;4997510;28;20940;-80
2023/01/09 08:03:37;;;;;;;3.30;1.00;;;8.30;99.90;;;;;;5016191;28;20191;-80
2023/01/09 08:06:03;;;;;;;4.30;1.40;;;8.20;99.90;;;;;;5015777;28;20183;-80
2023/01/09 08:08:29;;;;;;;1.87;1.00;;;8.10;99.90;;;;;;5017196;28;20457;-80
2023/01/09 08:10:54;;;;;;;4.33;1.57;;;8.10;99.90;;;;;;4997682;28;20406;-79
2023/01/09 08:13:20;;;;;;;2.60;1.20;;;8.40;99.90;;;;;;5015738;28;20186;-80
2023/01/09 08:15:46;;;;;;;1.70;1.20;;;8.30;99.90;;;;;;4998526;28;20210;-80
2023/01/09 08:18:11;;;;;;;3.00;0.90;;;8.10;99.90;;;;;;4997307;28;20237;-79
2023/01/09 08:20:37;;;;;;;2.77;1.27;;;8.10;99.90;;;;;;4978336;28;20183;-80
2023/01/09 08:23:03;;;;;;;1.63;1.03;;;8.20;99.90;;;;;;4994872;28;20198;-79
2023/01/09 08:25:28;;;;;;;3.83;1.00;;;8.20;99.90;;;;;;4994859;28;20195;-80
2023/01/09 08:27:54;;;;;;;2.87;1.00;;;8.30;99.90;;;;;;4978045;28;20536;-80
2023/01/09 08:30:20;;;;;;;2.83;1.27;;;8.20;99.90;;;;;;4995425;28;20172;-80
2023/01/09 08:32:52;;;;;;;2.60;1.47;;;8.40;99.90;;;;;;4996250;28;20212;-80
2023/01/09 08:35:19;;;;;;;2.00;1.00;;;8.20;99.90;;;;;;4982715;28;20419;-79
2023/01/09 08:37:46;;;;;;;3.00;1.03;;;8.20;99.90;;;;;;5001852;28;20759;-80
2023/01/09 08:40:13;;;;;;;2.37;1.67;;;8.20;99.90;;;;;;5018835;28;20410;-80
2023/01/09 08:48:09;;;;;;;3.80;1.40;;;8.20;99.90;;;;;;4999681;28;20450;-79
2023/01/09 08:50:34;;;;;;;2.37;1.20;;;8.30;99.90;;;;;;4981560;28;20426;-80
2023/01/09 08:53:00;;;;;;;2.90;1.30;;;8.30;99.90;;;;;;4965492;28;20434;-80
2023/01/09 08:55:26;;;;;;;4.40;1.77;;;8.40;99.90;;;;;;4980825;28;20552;-79
2023/01/09 08:57:53;;;;;;;2.50;1.20;;;8.30;99.90;;;;;;4999072;28;20176;-80
2023/01/09 09:00:21;;;;;;;1.83;1.20;;;8.30;99.90;;;;;;4981188;28;20258;-79
2023/01/09 09:02:57;;;;;;;4.53;0.97;;;8.30;99.90;;;;;;4998471;28;20526;-80
2023/01/09 09:05:25;;;;;;;2.80;1.03;;;8.30;99.90;;;;;;4980685;28;20469;-79
2023/01/09 09:07:53;;;;;;;2.00;1.20;;;8.30;99.90;;;;;;4998675;28;20419;-80
2023/01/09 09:10:23;;;;;;;2.60;1.00;;;8.30;99.90;;;;;;4998363;28;20411;-80
2023/01/09 09:12:51;;;;;;;1.47;1.10;;;8.30;99.90;;;;;;4981651;28;20423;-80
2023/01/09 09:15:22;;;;;;;4.87;1.40;;;8.30;99.90;;;;;;4998300;28;20403;-79
2023/01/09 09:17:59;;;;;;;2.60;1.37;;;8.50;99.90;;;;;;4988682;28;20428;-80
2023/01/09 09:20:28;;;;;;;2.27;1.00;;;8.50;99.90;;;;;;4980084;28;20835;-79
2023/01/09 09:22:53;;;;;;;5.23;1.73;;;8.40;99.90;;;;;;4981448;28;20456;-79
2023/01/09 09:25:20;;;;;;;2.30;1.50;;;8.40;99.90;;;;;;4980934;28;20924;-79
2023/01/09 09:27:46;;;;;;;1.30;0.97;;;8.50;99.90;;;;;;4981041;28;20641;-78
2023/01/09 09:30:14;;;;;;;1.63;0.93;;;8.40;99.90;;;;;;4997677;28;21018;-80
2023/01/09 09:32:40;;;;;;;1.33;1.00;;;8.30;99.90;;;;;;4998272;28;20455;-79
2023/01/09 09:35:07;;;;;;;1.57;1.03;;;8.40;99.90;;;;;;4969317;28;20513;-80
2023/01/09 09:37:33;;;;;;;2.67;1.50;;;8.40;99.90;;;;;;5000403;28;20966;-80
2023/01/09 09:39:58;;;;;;;5.37;1.13;;;8.30;99.90;;;;;;5017461;28;20461;-80
2023/01/09 09:45:54;;;;;;;8.00;1.43;;;8.30;99.90;;;;;;4980382;28;20194;-79
2023/01/09 09:48:36;;;;;;;2.70;1.80;;;8.20;99.90;;;;;;4981435;28;20967;-78
2023/01/09 09:51:23;;;;;;;3.30;1.27;;;8.20;99.90;;;;;;4998193;28;20417;-79
2023/01/09 09:53:59;;;;;;;4.30;1.20;;;8.20;99.90;;;;;;4980928;28;20806;-79
2023/01/09 09:56:28;;;;;;;1.33;1.10;;;8.20;99.90;;;;;;4998413;28;20422;-79
2023/01/09 09:59:05;;;;;;;2.40;1.33;;;8.20;99.90;;;;;;4999142;28;20419;-79
2023/01/09 10:01:47;;;;;;;2.20;1.20;;;8.20;99.90;;;;;;4980730;28;20450;-80
2023/01/09 10:04:17;;;;;;;3.53;1.53;;;8.20;99.90;;;;;;4999345;28;20456;-79
2023/01/09 10:06:44;;;;;;;6.87;1.63;;;8.40;99.90;;;;;;4997632;28;20421;-79
2023/01/09 10:09:47;;;;;;;6.00;1.47;;;8.50;99.90;;;;;;4980483;28;20469;-79
2023/01/09 10:12:18;;;;;;;2.10;1.13;;;8.30;99.90;;;;;;4997210;28;20446;-79
2023/01/09 10:14:44;;;;;;;4.73;1.60;;;8.20;99.90;;;;;;4997916;28;20459;-79
2023/01/09 10:17:53;;;;;;;3.07;1.10;;;8.20;99.90;;;;;;4998117;28;20442;-80
2023/01/09 10:20:28;;;;;;;6.30;1.60;;;8.40;99.90;;;;;;4980531;28;20196;-80
2023/01/09 10:23:14;;;;;;;3.30;1.70;;;8.20;99.90;;;;;;4998135;28;20450;-80
2023/01/09 10:26:10;;;;;;;4.33;1.50;;;8.30;99.90;;;;;;4980509;28;20480;-79
2023/01/09 10:29:01;;;;;;;3.20;2.67;;;8.30;99.90;;;;;;4948964;28;20466;-79
2023/01/09 10:31:53;;;;;;;2.33;1.30;;;8.40;99.90;;;;;;4997149;28;20447;-79
2023/01/09 10:34:35;;;;;;;3.70;1.20;;;8.20;99.90;;;;;;4977529;28;20414;-80
2023/01/09 10:37:07;;;;;;;3.50;1.60;;;8.60;99.90;;;;;;4996036;28;20441;-79
2023/01/09 10:39:54;;;;;;;3.60;1.60;;;8.40;99.90;;;;;;4980577;28;20432;-79
2023/01/09 10:42:20;;;;;;;3.80;1.60;;;8.40;99.90;;;;;;4998092;28;20781;-78
2023/01/09 10:44:58;;;;;;;3.50;1.47;;;8.40;99.90;;;;;;4994333;28;20442;-78
2023/01/09 10:47:33;;;;;;;2.60;1.10;;;8.40;99.90;;;;;;4976682;28;20656;-78
2023/01/09 10:50:20;;;;;;;3.70;1.70;;;8.60;99.90;;;;;;4994299;28;20537;-78
2023/01/09 10:52:48;;;;;;;3.67;1.33;;;8.40;99.90;;;;;;4987881;28;20542;-79
2023/01/09 10:55:42;;;;;;;3.63;1.37;;;8.50;99.90;;;;;;4978106;28;20466;-79
2023/01/09 10:58:13;;;;;;;4.10;1.83;;;8.60;99.90;;;;;;4977648;28;20808;-79
2023/01/09 11:00:39;;;;;;;4.03;1.63;;;8.50;99.90;;;;;;4987145;28;20458;-79
2023/01/09 11:03:11;;;;;;;6.17;1.30;;;8.70;99.90;;;;;;4995431;28;20443;-80
2023/01/09 11:05:37;;;;;;;2.63;1.20;;;8.60;99.90;;;;;;4995390;28;20423;-79
2023/01/09 11:08:07;;;;;;;4.40;1.40;;;8.70;99.90;;;;;;4961618;28;20426;-79
2023/01/09 11:10:45;;;;;;;3.13;1.10;;;8.90;99.90;;;;;;4994545;28;20219;-79
2023/01/09 11:13:21;;;;;;;4.27;1.30;;;8.70;99.90;;;;;;4994916;28;20434;-79
2023/01/09 11:16:18;;;;;;;5.63;1.40;;;8.60;99.90;;;;;;4977488;28;20456;-80
2023/01/09 11:18:54;;;;;;;4.70;1.27;;;8.60;99.90;;;;;;4994149;28;20429;-79
2023/01/09 11:21:34;;;;;;;4.73;1.47;;;8.70;99.90;;;;;;4994544;28;20455;-80
2023/01/09 11:24:21;;;;;;;3.23;1.13;;;8.50;99.90;;;;;;4994570;28;20904;-80
2023/01/09 11:26:50;;;;;;;2.33;1.30;;;8.90;99.90;;;;;;4976786;28;20427;-80
2023/01/09 11:29:20;;;;;;;2.63;1.43;;;8.70;99.90;;;;;;4960632;28;20546;-79
2023/01/09 11:31:57;;;;;;;2.63;1.73;;;8.80;99.90;;;;;;4994301;28;20830;-80
2023/01/09 11:34:27;;;;;;;3.03;1.30;;;8.80;99.90;;;;;;4977409;28;20501;-79
2023/01/09 11:37:00;;;;;;;5.17;1.53;;;8.80;99.90;;;;;;4992461;28;20892;-79
2023/01/09 11:39:29;;;;;;;3.23;1.20;;;8.80;99.90;;;;;;5000502;28;20797;-80
2023/01/09 11:41:57;;;;;;;3.83;1.50;;;8.80;99.90;;;;;;4997898;28;20533;-80
2023/01/09 11:44:24;;;;;;;2.27;1.30;;;8.90;99.90;;;;;;4995608;28;20476;-79
2023/01/09 11:46:50;;;;;;;2.43;1.30;;;9.00;99.90;;;;;;4979326;28;20532;-79
2023/01/09 11:49:21;;;;;;;2.40;0.97;;;8.80;99.90;;;;;;4997320;28;20957;-79
2023/01/09 11:52:08;;;;;;;5.87;1.70;;;8.80;99.90;;;;;;5002948;28;20203;-78
2023/01/09 11:54:37;;;;;;;3.27;1.37;;;9.00;99.90;;;;;;4999000;28;20419;-79
2023/01/09 11:57:02;;;;;;;6.07;1.80;;;9.00;99.90;;;;;;5008275;28;20418;-79
2023/01/09 11:59:30;;;;;;;2.37;1.40;;;8.80;99.90;;;;;;5013039;28;20876;-78
2023/01/09 12:02:23;;;;;;;5.50;1.63;;;8.90;99.90;;;;;;5010859;28;20225;-78
2023/01/09 12:04:57;;;;;;;3.53;1.50;;;8.80;99.90;;;;;;5000566;28;20423;-78
2023/01/09 12:07:26;;;;;;;1.50;1.10;;;8.90;99.90;;;;;;5010019;28;20414;-78
2023/01/09 12:10:30;;;;;;;2.90;1.23;;;8.90;99.90;;;;;;5013562;28;20461;-79
2023/01/09 12:13:04;;;;;;;1.23;1.10;;;8.70;99.90;;;;;;4971217;28;20507;-79
2023/01/09 12:15:36;;;;;;;2.50;1.67;;;9.10;99.90;;;;;;4982597;28;20939;-79
2023/01/09 12:18:26;;;;;;;5.00;1.80;;;8.80;99.90;;;;;;4978211;28;20437;-78
2023/01/09 12:21:03;;;;;;;3.13;1.37;;;8.90;99.90;;;;;;4999495;28;20421;-79
2023/01/09 12:23:43;;;;;;;3.47;1.47;;;8.90;99.90;;;;;;5002697;28;20431;-78
2023/01/09 12:26:09;;;;;;;3.63;1.60;;;8.90;99.90;;;;;;5005422;28;20414;-80
2023/01/09 12:28:48;;;;;;;3.60;1.90;;;8.90;99.90;;;;;;5014549;28;20457;-80
2023/01/09 12:31:34;;;;;;;3.17;1.57;;;8.90;99.90;;;;;;5011132;28;20191;-79
2023/01/09 12:34:20;;;;;;;4.00;1.50;;;8.90;99.90;;;;;;4987973;28;20431;-77
2023/01/09 12:36:49;;;;;;;2.90;1.70;;;8.90;99.90;;;;;;4993864;28;20441;-77
2023/01/09 12:39:52;;;;;;;3.00;1.87;;;8.90;99.90;;;;;;4995485;28;20418;-78
2023/01/09 12:42:39;;;;;;;3.53;1.50;;;9.00;99.90;;;;;;4998268;28;20450;-79
2023/01/09 12:45:07;;;;;;;3.57;1.60;;;8.90;99.90;;;;;;4959802;28;20450;-78
2023/01/09 12:47:44;;;;;;;5.20;1.87;;;9.00;99.90;;;;;;4993199;28;20486;-79
2023/01/09 12:50:28;;;;;;;3.43;1.43;;;8.80;99.90;;;;;;4992772;28;20467;-79
2023/01/09 12:53:19;;;;;;;2.87;1.60;;;8.90;99.90;;;;;;4977091;28;20450;-78
2023/01/09 12:56:04;;;;;;;1.97;1.40;;;8.90;99.90;;;;;;4977187;28;20431;-79
2023/01/09 12:58:46;;;;;;;4.37;1.40;;;8.80;99.90;;;;;;4961404;28;20426;-77
2023/01/09 13:01:20;;;;;;;3.20;1.83;;;8.80;99.90;;;;;;4994207;28;20811;-79
2023/01/09 13:03:54;;;;;;;3.23;1.60;;;8.90;99.90;;;;;;4995550;28;20422;-79
2023/01/09 13:06:22;;;;;;;6.00;2.00;;;8.80;99.90;;;;;;4994979;28;20592;-80
2023/01/09 13:09:05;;;;;;;2.53;1.80;;;8.90;99.90;;;;;;4977588;28;20462;-78
2023/01/09 13:11:36;;;;;;;2.87;1.57;;;8.90;99.90;;;;;;4960478;28;20816;-79
2023/01/09 13:14:24;;;;;;;2.27;1.50;;;8.70;99.90;;;;;;4977502;28;20423;-80
2023/01/09 13:16:55;;;;;;;2.67;1.50;;;8.80;99.90;;;;;;4976494;28;20991;-79
2023/01/09 13:19:31;;;;;;;1.97;1.20;;;8.80;99.90;;;;;;4977039;28;20437;-79
2023/01/09 13:21:58;;;;;;;3.13;1.50;;;8.80;99.90;;;;;;4993739;28;20442;-77
2023/01/09 13:24:46;;;;;;;2.13;1.40;;;8.60;99.90;;;;;;4994546;28;20419;-79
2023/01/09 13:27:19;;;;;;;2.47;1.47;;;8.70;99.90;;;;;;4976987;28;20434;-79
2023/01/09 13:29:50;;;;;;;3.00;1.30;;;8.90;99.90;;;;;;4993067;28;20466;-79
2023/01/09 13:32:48;;;;;;;4.67;1.87;;;8.90;99.90;;;;;;4976825;28;20856;-79